Startpagina
METAR-TAF:

METAR-TAF

Vliegvelden :

Curaçao, Nederlandse Antillen

Curaçao International Airport

breedte: 12-12N, lengte: 068-58W, hoogte: 9 m

Actueel weer

Dit bericht is 55 minuten geleden gemaakt, om 12:00 UTC
Wind 12 kt uit het oosten, variërend tussen het oostnoordoosten en het zuidoosten
Temperatuur 29°C
Vochtigheid 70%
Druk 1014 hPa
Zicht 10 km of meer
Weinig wolken op 1800 ft

METAR: TNCC 261200Z 10012KT 070V130 9999 FEW018 29/23 Q1014 NOSIG

Tijdstip: 08:55 (12:55 UTC)

Verwachting

Dit bericht is 2 uur en het 55 minuten geleden gemaakt, om 10:00 UTC
Verwachting geldig van 26 om 12 UTC tot 27 om 12 UTC
Wind 14 kt uit het oosten
Zicht 10 km of meer
Verspreide wolken op 2000 ft

TAF: TNCC 261000Z 2612/2712 10014KT 9999 SCT020

Waarnemingen en weersverwachtingen van meer dan 4000 vliegvelden (METAR en TAF).

De beschikbare stations zijn de gele en rode punten op de kaart.

Ga met uw muis naar het station om de naam te zien.

Klik dan om waarnemingen en weersverwachtingen te zien.

kaart wijzigen: klik op de groene knoppen met een zwart kruis om in te zoomen, op de groene knop met een streepje om uit te zoomen of op de groene pijlen voor aangrenzende kaarten.


METAR-TAF: